sensor_id;sensor_type;location;lat;lon;timestamp;temperature;humidity
48666;DHT22;34452;50.796;4.994;2023-08-12T00:01:55;20.60;99.90
48666;DHT22;34452;50.796;4.994;2023-08-12T00:04:21;20.60;99.90
48666;DHT22;34452;50.796;4.994;2023-08-12T00:06:48;20.60;99.90
48666;DHT22;34452;50.796;4.994;2023-08-12T00:09:13;20.60;99.90
48666;DHT22;34452;50.796;4.994;2023-08-12T00:11:40;20.50;99.90
48666;DHT22;34452;50.796;4.994;2023-08-12T00:14:06;20.60;99.90
48666;DHT22;34452;50.796;4.994;2023-08-12T00:16:32;20.50;99.90
48666;DHT22;34452;50.796;4.994;2023-08-12T00:18:58;20.50;99.90
48666;DHT22;34452;50.796;4.994;2023-08-12T00:21:25;20.50;99.90
48666;DHT22;34452;50.796;4.994;2023-08-12T00:23:51;20.50;99.90
48666;DHT22;34452;50.796;4.994;2023-08-12T00:26:17;20.50;99.90
48666;DHT22;34452;50.796;4.994;2023-08-12T00:28:42;20.50;99.90
48666;DHT22;34452;50.796;4.994;2023-08-12T00:31:08;20.60;99.90
48666;DHT22;34452;50.796;4.994;2023-08-12T00:33:34;20.60;99.90
48666;DHT22;34452;50.796;4.994;2023-08-12T00:36:00;20.60;99.90
48666;DHT22;34452;50.796;4.994;2023-08-12T00:38:25;20.70;99.90
48666;DHT22;34452;50.796;4.994;2023-08-12T00:40:51;20.70;99.90
48666;DHT22;34452;50.796;4.994;2023-08-12T00:43:17;20.70;99.90
48666;DHT22;34452;50.796;4.994;2023-08-12T00:45:43;20.60;99.90
48666;DHT22;34452;50.796;4.994;2023-08-12T00:48:09;20.60;99.90
48666;DHT22;34452;50.796;4.994;2023-08-12T00:50:36;20.60;99.90
48666;DHT22;34452;50.796;4.994;2023-08-12T00:53:04;20.60;99.90
48666;DHT22;34452;50.796;4.994;2023-08-12T00:55:33;20.60;99.90
48666;DHT22;34452;50.796;4.994;2023-08-12T00:57:59;20.60;99.90
48666;DHT22;34452;50.796;4.994;2023-08-12T01:00:25;20.60;99.90
48666;DHT22;34452;50.796;4.994;2023-08-12T01:02:51;20.60;99.90
48666;DHT22;34452;50.796;4.994;2023-08-12T01:05:18;20.60;99.90
48666;DHT22;34452;50.796;4.994;2023-08-12T01:07:43;20.60;99.90
48666;DHT22;34452;50.796;4.994;2023-08-12T01:10:10;20.60;99.90
48666;DHT22;34452;50.796;4.994;2023-08-12T01:12:50;20.60;99.90
48666;DHT22;34452;50.796;4.994;2023-08-12T01:15:21;20.60;99.90
48666;DHT22;34452;50.796;4.994;2023-08-12T01:17:47;20.60;99.90
48666;DHT22;34452;50.796;4.994;2023-08-12T01:20:20;20.60;99.90
48666;DHT22;34452;50.796;4.994;2023-08-12T01:25:35;20.60;99.90
48666;DHT22;34452;50.796;4.994;2023-08-12T01:28:01;20.50;99.90
48666;DHT22;34452;50.796;4.994;2023-08-12T01:30:27;20.50;99.90
48666;DHT22;34452;50.796;4.994;2023-08-12T01:32:58;20.60;99.90
48666;DHT22;34452;50.796;4.994;2023-08-12T01:35:51;20.60;99.90
48666;DHT22;34452;50.796;4.994;2023-08-12T01:38:21;20.60;99.90
48666;DHT22;34452;50.796;4.994;2023-08-12T01:40:48;20.50;99.90
48666;DHT22;34452;50.796;4.994;2023-08-12T01:43:15;20.50;99.90
48666;DHT22;34452;50.796;4.994;2023-08-12T01:45:41;20.50;99.90
48666;DHT22;34452;50.796;4.994;2023-08-12T01:48:09;20.50;99.90
48666;DHT22;34452;50.796;4.994;2023-08-12T01:50:35;20.40;99.90
48666;DHT22;34452;50.796;4.994;2023-08-12T01:53:00;20.40;99.90
48666;DHT22;34452;50.796;4.994;2023-08-12T01:55:26;20.40;99.90
48666;DHT22;34452;50.796;4.994;2023-08-12T01:57:52;20.40;99.90
48666;DHT22;34452;50.796;4.994;2023-08-12T02:00:17;20.40;99.90
48666;DHT22;34452;50.796;4.994;2023-08-12T02:02:43;20.40;99.90
48666;DHT22;34452;50.796;4.994;2023-08-12T02:05:23;20.40;99.90
48666;DHT22;34452;50.796;4.994;2023-08-12T02:07:48;20.30;99.90
48666;DHT22;34452;50.796;4.994;2023-08-12T02:10:14;20.30;99.90
48666;DHT22;34452;50.796;4.994;2023-08-12T02:12:40;20.30;99.90
48666;DHT22;34452;50.796;4.994;2023-08-12T02:15:06;20.30;99.90
48666;DHT22;34452;50.796;4.994;2023-08-12T02:17:32;20.30;99.90
48666;DHT22;34452;50.796;4.994;2023-08-12T02:19:58;20.30;99.90
48666;DHT22;34452;50.796;4.994;2023-08-12T02:22:23;20.30;99.90
48666;DHT22;34452;50.796;4.994;2023-08-12T02:24:50;20.40;99.90
48666;DHT22;34452;50.796;4.994;2023-08-12T02:27:15;20.40;99.90
48666;DHT22;34452;50.796;4.994;2023-08-12T02:29:41;20.40;99.90
48666;DHT22;34452;50.796;4.994;2023-08-12T02:32:07;20.40;99.90
48666;DHT22;34452;50.796;4.994;2023-08-12T02:34:32;20.40;99.90
48666;DHT22;34452;50.796;4.994;2023-08-12T02:36:58;20.40;99.90
48666;DHT22;34452;50.796;4.994;2023-08-12T02:39:24;20.40;99.90
48666;DHT22;34452;50.796;4.994;2023-08-12T02:41:50;20.30;99.90
48666;DHT22;34452;50.796;4.994;2023-08-12T02:44:16;20.30;99.90
48666;DHT22;34452;50.796;4.994;2023-08-12T02:46:42;20.40;99.90
48666;DHT22;34452;50.796;4.994;2023-08-12T02:49:07;20.30;99.90
48666;DHT22;34452;50.796;4.994;2023-08-12T02:51:33;20.30;99.90
48666;DHT22;34452;50.796;4.994;2023-08-12T02:53:59;20.30;99.90
48666;DHT22;34452;50.796;4.994;2023-08-12T02:56:25;20.30;99.90
48666;DHT22;34452;50.796;4.994;2023-08-12T02:58:50;20.30;99.90
48666;DHT22;34452;50.796;4.994;2023-08-12T03:01:16;20.30;99.90
48666;DHT22;34452;50.796;4.994;2023-08-12T03:03:42;20.30;99.90
48666;DHT22;34452;50.796;4.994;2023-08-12T03:06:08;20.30;99.90
48666;DHT22;34452;50.796;4.994;2023-08-12T03:08:33;20.30;99.90
48666;DHT22;34452;50.796;4.994;2023-08-12T03:11:01;20.30;99.90
48666;DHT22;34452;50.796;4.994;2023-08-12T03:13:28;20.30;99.90
48666;DHT22;34452;50.796;4.994;2023-08-12T03:15:54;20.30;99.90
48666;DHT22;34452;50.796;4.994;2023-08-12T03:18:20;20.30;99.90
48666;DHT22;34452;50.796;4.994;2023-08-12T03:20:46;20.30;99.90
48666;DHT22;34452;50.796;4.994;2023-08-12T03:23:12;20.30;99.90
48666;DHT22;34452;50.796;4.994;2023-08-12T03:25:37;20.30;99.90
48666;DHT22;34452;50.796;4.994;2023-08-12T03:28:03;20.30;99.90
48666;DHT22;34452;50.796;4.994;2023-08-12T03:30:29;20.30;99.90
48666;DHT22;34452;50.796;4.994;2023-08-12T03:32:56;20.20;99.90
48666;DHT22;34452;50.796;4.994;2023-08-12T03:35:22;20.30;99.90
48666;DHT22;34452;50.796;4.994;2023-08-12T03:37:47;20.20;99.90
48666;DHT22;34452;50.796;4.994;2023-08-12T03:40:13;20.20;99.90
48666;DHT22;34452;50.796;4.994;2023-08-12T03:42:39;20.20;99.90
48666;DHT22;34452;50.796;4.994;2023-08-12T03:45:05;20.20;99.90
48666;DHT22;34452;50.796;4.994;2023-08-12T03:47:31;20.20;99.90
48666;DHT22;34452;50.796;4.994;2023-08-12T03:49:57;20.20;99.90
48666;DHT22;34452;50.796;4.994;2023-08-12T03:52:23;20.20;99.90
48666;DHT22;34452;50.796;4.994;2023-08-12T03:54:48;20.20;99.90
48666;DHT22;34452;50.796;4.994;2023-08-12T03:57:14;20.20;99.90
48666;DHT22;34452;50.796;4.994;2023-08-12T03:59:40;20.30;99.90
48666;DHT22;34452;50.796;4.994;2023-08-12T04:02:06;20.30;99.90
48666;DHT22;34452;50.796;4.994;2023-08-12T04:04:32;20.30;99.90
48666;DHT22;34452;50.796;4.994;2023-08-12T04:06:57;20.20;99.90
48666;DHT22;34452;50.796;4.994;2023-08-12T04:09:23;20.20;99.90
48666;DHT22;34452;50.796;4.994;2023-08-12T04:11:49;20.20;99.90
48666;DHT22;34452;50.796;4.994;2023-08-12T04:14:15;20.20;99.90
48666;DHT22;34452;50.796;4.994;2023-08-12T04:16:40;20.20;99.90
48666;DHT22;34452;50.796;4.994;2023-08-12T04:19:06;20.20;99.90
48666;DHT22;34452;50.796;4.994;2023-08-12T04:21:32;20.20;99.90
48666;DHT22;34452;50.796;4.994;2023-08-12T04:23:58;20.20;99.90
48666;DHT22;34452;50.796;4.994;2023-08-12T04:26:24;20.30;99.90
48666;DHT22;34452;50.796;4.994;2023-08-12T04:28:49;20.20;99.90
48666;DHT22;34452;50.796;4.994;2023-08-12T04:31:15;20.30;99.90
48666;DHT22;34452;50.796;4.994;2023-08-12T04:33:41;20.30;99.90
48666;DHT22;34452;50.796;4.994;2023-08-12T04:36:07;20.20;99.90
48666;DHT22;34452;50.796;4.994;2023-08-12T04:38:32;20.20;99.90
48666;DHT22;34452;50.796;4.994;2023-08-12T04:40:58;20.20;99.90
48666;DHT22;34452;50.796;4.994;2023-08-12T04:43:25;20.20;99.90
48666;DHT22;34452;50.796;4.994;2023-08-12T04:45:51;20.20;99.90
48666;DHT22;34452;50.796;4.994;2023-08-12T04:48:17;20.30;99.90
48666;DHT22;34452;50.796;4.994;2023-08-12T04:50:43;20.30;99.90
48666;DHT22;34452;50.796;4.994;2023-08-12T04:53:09;20.20;99.90
48666;DHT22;34452;50.796;4.994;2023-08-12T04:55:35;20.20;99.90
48666;DHT22;34452;50.796;4.994;2023-08-12T04:58:02;20.20;99.90
48666;DHT22;34452;50.796;4.994;2023-08-12T05:00:28;20.20;99.90
48666;DHT22;34452;50.796;4.994;2023-08-12T05:02:53;20.20;99.90
48666;DHT22;34452;50.796;4.994;2023-08-12T05:05:19;20.20;99.90
48666;DHT22;34452;50.796;4.994;2023-08-12T05:07:45;20.20;99.90
48666;DHT22;34452;50.796;4.994;2023-08-12T05:10:15;20.20;99.90
48666;DHT22;34452;50.796;4.994;2023-08-12T05:12:43;20.20;99.90
48666;DHT22;34452;50.796;4.994;2023-08-12T05:15:10;20.20;99.90
48666;DHT22;34452;50.796;4.994;2023-08-12T05:17:35;20.20;99.90
48666;DHT22;34452;50.796;4.994;2023-08-12T05:20:01;20.20;99.90
48666;DHT22;34452;50.796;4.994;2023-08-12T05:22:27;20.20;99.90
48666;DHT22;34452;50.796;4.994;2023-08-12T05:24:53;20.20;99.90
48666;DHT22;34452;50.796;4.994;2023-08-12T05:27:18;20.20;99.90
48666;DHT22;34452;50.796;4.994;2023-08-12T05:29:44;20.20;99.90
48666;DHT22;34452;50.796;4.994;2023-08-12T05:32:10;20.20;99.90
48666;DHT22;34452;50.796;4.994;2023-08-12T05:34:36;20.30;99.90
48666;DHT22;34452;50.796;4.994;2023-08-12T05:37:01;20.30;99.90
48666;DHT22;34452;50.796;4.994;2023-08-12T05:39:27;20.30;99.90
48666;DHT22;34452;50.796;4.994;2023-08-12T05:41:53;20.30;99.90
48666;DHT22;34452;50.796;4.994;2023-08-12T05:44:18;20.30;99.90
48666;DHT22;34452;50.796;4.994;2023-08-12T05:46:44;20.40;99.90
48666;DHT22;34452;50.796;4.994;2023-08-12T05:49:10;20.40;99.90
48666;DHT22;34452;50.796;4.994;2023-08-12T05:51:36;20.40;99.90
48666;DHT22;34452;50.796;4.994;2023-08-12T05:54:01;20.40;99.90
48666;DHT22;34452;50.796;4.994;2023-08-12T05:56:27;20.40;99.90
48666;DHT22;34452;50.796;4.994;2023-08-12T05:58:53;20.50;99.90
48666;DHT22;34452;50.796;4.994;2023-08-12T06:01:19;20.50;99.90
48666;DHT22;34452;50.796;4.994;2023-08-12T06:03:45;20.50;99.90
48666;DHT22;34452;50.796;4.994;2023-08-12T06:06:10;20.50;99.90
48666;DHT22;34452;50.796;4.994;2023-08-12T06:08:36;20.50;99.90
48666;DHT22;34452;50.796;4.994;2023-08-12T06:11:02;20.50;99.90
48666;DHT22;34452;50.796;4.994;2023-08-12T06:13:28;20.60;99.90
48666;DHT22;34452;50.796;4.994;2023-08-12T06:15:53;20.60;99.90
48666;DHT22;34452;50.796;4.994;2023-08-12T06:18:19;20.60;99.90
48666;DHT22;34452;50.796;4.994;2023-08-12T06:20:45;20.60;99.90
48666;DHT22;34452;50.796;4.994;2023-08-12T06:23:10;20.60;99.90
48666;DHT22;34452;50.796;4.994;2023-08-12T06:25:36;20.60;99.90
48666;DHT22;34452;50.796;4.994;2023-08-12T06:28:02;20.60;99.90
48666;DHT22;34452;50.796;4.994;2023-08-12T06:30:30;20.60;99.90
48666;DHT22;34452;50.796;4.994;2023-08-12T06:32:56;20.60;99.90
48666;DHT22;34452;50.796;4.994;2023-08-12T06:35:22;20.60;99.90
48666;DHT22;34452;50.796;4.994;2023-08-12T06:37:47;20.60;99.90
48666;DHT22;34452;50.796;4.994;2023-08-12T06:40:13;20.60;99.90
48666;DHT22;34452;50.796;4.994;2023-08-12T06:42:39;20.60;99.90
48666;DHT22;34452;50.796;4.994;2023-08-12T06:45:05;20.60;99.90
48666;DHT22;34452;50.796;4.994;2023-08-12T06:47:31;20.70;99.90
48666;DHT22;34452;50.796;4.994;2023-08-12T06:49:57;20.70;99.90
48666;DHT22;34452;50.796;4.994;2023-08-12T06:52:23;20.70;99.90
48666;DHT22;34452;50.796;4.994;2023-08-12T06:54:48;20.70;99.90
48666;DHT22;34452;50.796;4.994;2023-08-12T06:57:14;20.70;99.90
48666;DHT22;34452;50.796;4.994;2023-08-12T06:59:40;20.70;99.90
48666;DHT22;34452;50.796;4.994;2023-08-12T07:02:06;20.70;99.90
48666;DHT22;34452;50.796;4.994;2023-08-12T07:04:32;20.60;99.90
48666;DHT22;34452;50.796;4.994;2023-08-12T07:06:57;20.60;99.90
48666;DHT22;34452;50.796;4.994;2023-08-12T07:09:23;20.60;99.90
48666;DHT22;34452;50.796;4.994;2023-08-12T07:11:49;20.70;99.90
48666;DHT22;34452;50.796;4.994;2023-08-12T07:14:15;20.60;99.90
48666;DHT22;34452;50.796;4.994;2023-08-12T07:16:40;20.60;99.90
48666;DHT22;34452;50.796;4.994;2023-08-12T07:19:06;20.70;99.90
48666;DHT22;34452;50.796;4.994;2023-08-12T07:21:32;20.70;99.90
48666;DHT22;34452;50.796;4.994;2023-08-12T07:23:58;20.80;99.90
48666;DHT22;34452;50.796;4.994;2023-08-12T07:26:23;20.80;99.90
48666;DHT22;34452;50.796;4.994;2023-08-12T07:28:49;20.80;99.90
48666;DHT22;34452;50.796;4.994;2023-08-12T07:31:15;20.90;99.90
48666;DHT22;34452;50.796;4.994;2023-08-12T07:33:41;20.90;99.90
48666;DHT22;34452;50.796;4.994;2023-08-12T07:36:06;21.00;99.90
48666;DHT22;34452;50.796;4.994;2023-08-12T07:38:32;20.90;99.90
48666;DHT22;34452;50.796;4.994;2023-08-12T07:40:58;21.00;99.90
48666;DHT22;34452;50.796;4.994;2023-08-12T07:43:24;21.00;99.90
48666;DHT22;34452;50.796;4.994;2023-08-12T07:45:51;21.10;99.90
48666;DHT22;34452;50.796;4.994;2023-08-12T07:48:18;21.10;99.90
48666;DHT22;34452;50.796;4.994;2023-08-12T07:50:44;21.20;99.90
48666;DHT22;34452;50.796;4.994;2023-08-12T07:53:10;21.20;99.90
48666;DHT22;34452;50.796;4.994;2023-08-12T07:55:36;21.30;99.90
48666;DHT22;34452;50.796;4.994;2023-08-12T07:58:02;21.30;99.90
48666;DHT22;34452;50.796;4.994;2023-08-12T08:00:29;21.30;99.90
48666;DHT22;34452;50.796;4.994;2023-08-12T08:02:55;21.40;99.90
48666;DHT22;34452;50.796;4.994;2023-08-12T08:05:21;21.40;99.90
48666;DHT22;34452;50.796;4.994;2023-08-12T08:07:47;21.40;99.90
48666;DHT22;34452;50.796;4.994;2023-08-12T08:10:13;21.40;99.90
48666;DHT22;34452;50.796;4.994;2023-08-12T08:12:39;21.40;99.90
48666;DHT22;34452;50.796;4.994;2023-08-12T08:15:05;21.40;99.90
48666;DHT22;34452;50.796;4.994;2023-08-12T08:17:30;21.40;99.90
48666;DHT22;34452;50.796;4.994;2023-08-12T08:19:56;21.50;99.90
48666;DHT22;34452;50.796;4.994;2023-08-12T08:22:22;21.60;99.90
48666;DHT22;34452;50.796;4.994;2023-08-12T08:24:48;21.60;99.90
48666;DHT22;34452;50.796;4.994;2023-08-12T08:27:14;21.60;99.90
48666;DHT22;34452;50.796;4.994;2023-08-12T08:29:39;21.60;99.90
48666;DHT22;34452;50.796;4.994;2023-08-12T08:32:06;21.60;99.90
48666;DHT22;34452;50.796;4.994;2023-08-12T08:34:31;21.60;99.90
48666;DHT22;34452;50.796;4.994;2023-08-12T08:36:57;21.70;99.90
48666;DHT22;34452;50.796;4.994;2023-08-12T08:39:23;21.70;99.90
48666;DHT22;34452;50.796;4.994;2023-08-12T08:41:49;21.70;99.90
48666;DHT22;34452;50.796;4.994;2023-08-12T08:44:15;21.70;99.90
48666;DHT22;34452;50.796;4.994;2023-08-12T08:46:42;21.70;99.90
48666;DHT22;34452;50.796;4.994;2023-08-12T08:49:09;21.70;99.90
48666;DHT22;34452;50.796;4.994;2023-08-12T08:51:36;21.80;99.90
48666;DHT22;34452;50.796;4.994;2023-08-12T08:54:02;21.80;99.90
48666;DHT22;34452;50.796;4.994;2023-08-12T08:56:31;21.70;99.90
48666;DHT22;34452;50.796;4.994;2023-08-12T08:58:58;21.60;99.90
48666;DHT22;34452;50.796;4.994;2023-08-12T09:01:24;21.50;99.90
48666;DHT22;34452;50.796;4.994;2023-08-12T09:03:51;21.50;99.90
48666;DHT22;34452;50.796;4.994;2023-08-12T09:06:20;21.20;99.90
48666;DHT22;34452;50.796;4.994;2023-08-12T09:08:49;20.90;99.90
48666;DHT22;34452;50.796;4.994;2023-08-12T09:11:17;20.70;99.90
48666;DHT22;34452;50.796;4.994;2023-08-12T09:13:44;20.60;99.90
48666;DHT22;34452;50.796;4.994;2023-08-12T09:16:10;20.60;99.90
48666;DHT22;34452;50.796;4.994;2023-08-12T09:18:37;20.60;99.90
48666;DHT22;34452;50.796;4.994;2023-08-12T09:21:03;20.60;99.90
48666;DHT22;34452;50.796;4.994;2023-08-12T09:23:44;20.60;99.90
48666;DHT22;34452;50.796;4.994;2023-08-12T09:26:14;20.70;99.90
48666;DHT22;34452;50.796;4.994;2023-08-12T09:28:42;20.80;99.90
48666;DHT22;34452;50.796;4.994;2023-08-12T09:31:08;20.90;99.90
48666;DHT22;34452;50.796;4.994;2023-08-12T09:33:39;21.00;99.90
48666;DHT22;34452;50.796;4.994;2023-08-12T09:36:04;21.10;99.90
48666;DHT22;34452;50.796;4.994;2023-08-12T09:38:31;21.10;99.90
48666;DHT22;34452;50.796;4.994;2023-08-12T09:40:56;21.20;99.90
48666;DHT22;34452;50.796;4.994;2023-08-12T09:43:24;21.30;99.90
48666;DHT22;34452;50.796;4.994;2023-08-12T09:45:50;21.40;99.90
48666;DHT22;34452;50.796;4.994;2023-08-12T09:48:17;21.40;99.90
48666;DHT22;34452;50.796;4.994;2023-08-12T09:50:42;21.30;99.90
48666;DHT22;34452;50.796;4.994;2023-08-12T09:53:09;21.30;99.90
48666;DHT22;34452;50.796;4.994;2023-08-12T09:55:34;21.30;99.90
48666;DHT22;34452;50.796;4.994;2023-08-12T09:58:02;21.50;99.90
48666;DHT22;34452;50.796;4.994;2023-08-12T10:00:30;21.40;99.90
48666;DHT22;34452;50.796;4.994;2023-08-12T10:02:56;21.40;99.90
48666;DHT22;34452;50.796;4.994;2023-08-12T10:05:27;21.40;99.90
48666;DHT22;34452;50.796;4.994;2023-08-12T10:07:54;21.40;99.90
48666;DHT22;34452;50.796;4.994;2023-08-12T10:10:21;21.30;99.90
48666;DHT22;34452;50.796;4.994;2023-08-12T10:12:48;21.30;99.90
48666;DHT22;34452;50.796;4.994;2023-08-12T10:15:14;21.30;99.90
48666;DHT22;34452;50.796;4.994;2023-08-12T10:17:40;21.40;99.90
48666;DHT22;34452;50.796;4.994;2023-08-12T10:20:08;21.20;99.90
48666;DHT22;34452;50.796;4.994;2023-08-12T10:22:36;21.40;99.90
48666;DHT22;34452;50.796;4.994;2023-08-12T10:25:04;21.30;99.90
48666;DHT22;34452;50.796;4.994;2023-08-12T10:27:32;21.40;99.90
48666;DHT22;34452;50.796;4.994;2023-08-12T10:29:58;21.50;99.90
48666;DHT22;34452;50.796;4.994;2023-08-12T10:32:25;21.50;99.90
48666;DHT22;34452;50.796;4.994;2023-08-12T10:35:11;21.60;99.90
48666;DHT22;34452;50.796;4.994;2023-08-12T10:37:38;21.40;99.90
48666;DHT22;34452;50.796;4.994;2023-08-12T10:40:05;21.30;99.90
48666;DHT22;34452;50.796;4.994;2023-08-12T10:42:51;21.20;99.90
48666;DHT22;34452;50.796;4.994;2023-08-12T10:45:18;21.10;99.90
48666;DHT22;34452;50.796;4.994;2023-08-12T10:50:51;21.00;99.90
48666;DHT22;34452;50.796;4.994;2023-08-12T10:53:36;21.00;99.90
48666;DHT22;34452;50.796;4.994;2023-08-12T10:56:04;21.00;99.90
48666;DHT22;34452;50.796;4.994;2023-08-12T10:58:45;21.00;99.90
48666;DHT22;34452;50.796;4.994;2023-08-12T11:01:17;21.00;99.90
48666;DHT22;34452;50.796;4.994;2023-08-12T11:03:44;21.10;99.90
48666;DHT22;34452;50.796;4.994;2023-08-12T11:06:10;21.30;99.90
48666;DHT22;34452;50.796;4.994;2023-08-12T11:08:36;21.60;99.90
48666;DHT22;34452;50.796;4.994;2023-08-12T11:11:02;21.90;99.90
48666;DHT22;34452;50.796;4.994;2023-08-12T11:13:28;22.10;99.90
48666;DHT22;34452;50.796;4.994;2023-08-12T11:16:06;22.10;99.90
48666;DHT22;34452;50.796;4.994;2023-08-12T11:18:33;22.00;99.90
48666;DHT22;34452;50.796;4.994;2023-08-12T11:20:59;21.90;99.90
48666;DHT22;34452;50.796;4.994;2023-08-12T11:23:25;22.00;99.90
48666;DHT22;34452;50.796;4.994;2023-08-12T11:25:51;22.10;99.90
48666;DHT22;34452;50.796;4.994;2023-08-12T11:28:18;22.30;99.90
48666;DHT22;34452;50.796;4.994;2023-08-12T11:30:45;22.50;99.90
48666;DHT22;34452;50.796;4.994;2023-08-12T11:33:11;22.70;99.90
48666;DHT22;34452;50.796;4.994;2023-08-12T11:35:37;22.80;99.90
48666;DHT22;34452;50.796;4.994;2023-08-12T11:38:05;22.80;99.90
48666;DHT22;34452;50.796;4.994;2023-08-12T11:40:31;22.90;99.90
48666;DHT22;34452;50.796;4.994;2023-08-12T11:42:56;22.80;99.90
48666;DHT22;34452;50.796;4.994;2023-08-12T11:45:24;22.60;99.90
48666;DHT22;34452;50.796;4.994;2023-08-12T11:47:50;22.70;99.90
48666;DHT22;34452;50.796;4.994;2023-08-12T11:50:28;23.10;99.90
48666;DHT22;34452;50.796;4.994;2023-08-12T11:52:55;23.30;99.90
48666;DHT22;34452;50.796;4.994;2023-08-12T11:55:22;23.30;99.90
48666;DHT22;34452;50.796;4.994;2023-08-12T11:57:47;23.30;99.90
48666;DHT22;34452;50.796;4.994;2023-08-12T12:00:14;23.50;99.90
48666;DHT22;34452;50.796;4.994;2023-08-12T12:02:45;23.60;99.90
48666;DHT22;34452;50.796;4.994;2023-08-12T12:05:11;23.60;99.90
48666;DHT22;34452;50.796;4.994;2023-08-12T12:07:38;23.70;99.90
48666;DHT22;34452;50.796;4.994;2023-08-12T12:10:05;23.90;99.90
48666;DHT22;34452;50.796;4.994;2023-08-12T12:12:33;24.10;99.90
48666;DHT22;34452;50.796;4.994;2023-08-12T12:15:02;24.30;99.90
48666;DHT22;34452;50.796;4.994;2023-08-12T12:17:29;24.40;99.90
48666;DHT22;34452;50.796;4.994;2023-08-12T12:19:57;24.50;99.90
48666;DHT22;34452;50.796;4.994;2023-08-12T12:22:29;24.50;99.90
48666;DHT22;34452;50.796;4.994;2023-08-12T12:24:58;24.40;99.90
48666;DHT22;34452;50.796;4.994;2023-08-12T12:27:25;24.40;99.90
48666;DHT22;34452;50.796;4.994;2023-08-12T12:29:51;24.50;99.90
48666;DHT22;34452;50.796;4.994;2023-08-12T12:32:33;24.70;99.90
48666;DHT22;34452;50.796;4.994;2023-08-12T12:34:58;24.80;99.90
48666;DHT22;34452;50.796;4.994;2023-08-12T12:37:24;24.80;99.90
48666;DHT22;34452;50.796;4.994;2023-08-12T12:39:50;24.80;99.90
48666;DHT22;34452;50.796;4.994;2023-08-12T12:42:16;25.00;99.90
48666;DHT22;34452;50.796;4.994;2023-08-12T12:44:41;25.00;99.90
48666;DHT22;34452;50.796;4.994;2023-08-12T12:47:07;24.90;99.90
48666;DHT22;34452;50.796;4.994;2023-08-12T12:49:33;25.10;99.90
48666;DHT22;34452;50.796;4.994;2023-08-12T12:51:59;25.10;99.90
48666;DHT22;34452;50.796;4.994;2023-08-12T12:54:25;25.00;99.90
48666;DHT22;34452;50.796;4.994;2023-08-12T12:56:50;25.00;99.90
48666;DHT22;34452;50.796;4.994;2023-08-12T12:59:16;25.10;99.90
48666;DHT22;34452;50.796;4.994;2023-08-12T13:01:43;25.50;99.90
48666;DHT22;34452;50.796;4.994;2023-08-12T13:04:09;25.60;99.90
48666;DHT22;34452;50.796;4.994;2023-08-12T13:06:34;25.60;99.90
48666;DHT22;34452;50.796;4.994;2023-08-12T13:09:00;25.80;99.90
48666;DHT22;34452;50.796;4.994;2023-08-12T13:11:29;25.70;99.90
48666;DHT22;34452;50.796;4.994;2023-08-12T13:13:55;25.80;99.90
48666;DHT22;34452;50.796;4.994;2023-08-12T13:16:22;25.90;99.90
48666;DHT22;34452;50.796;4.994;2023-08-12T13:18:47;26.00;99.90
48666;DHT22;34452;50.796;4.994;2023-08-12T13:21:13;25.70;99.90
48666;DHT22;34452;50.796;4.994;2023-08-12T13:23:39;25.70;99.90
48666;DHT22;34452;50.796;4.994;2023-08-12T13:26:04;25.80;99.90
48666;DHT22;34452;50.796;4.994;2023-08-12T13:28:30;25.60;99.90
48666;DHT22;34452;50.796;4.994;2023-08-12T13:30:56;25.30;99.90
48666;DHT22;34452;50.796;4.994;2023-08-12T13:33:22;25.00;99.90
48666;DHT22;34452;50.796;4.994;2023-08-12T13:35:48;24.70;99.90
48666;DHT22;34452;50.796;4.994;2023-08-12T13:38:13;24.60;99.90
48666;DHT22;34452;50.796;4.994;2023-08-12T13:40:39;24.30;99.90
48666;DHT22;34452;50.796;4.994;2023-08-12T13:43:05;24.20;99.90
48666;DHT22;34452;50.796;4.994;2023-08-12T13:45:31;24.30;99.90
48666;DHT22;34452;50.796;4.994;2023-08-12T13:47:56;24.60;99.90
48666;DHT22;34452;50.796;4.994;2023-08-12T13:50:22;24.70;99.90
48666;DHT22;34452;50.796;4.994;2023-08-12T13:52:48;25.10;99.90
48666;DHT22;34452;50.796;4.994;2023-08-12T13:55:16;25.20;99.90
48666;DHT22;34452;50.796;4.994;2023-08-12T13:57:41;25.30;99.90
48666;DHT22;34452;50.796;4.994;2023-08-12T14:00:07;24.90;99.90
48666;DHT22;34452;50.796;4.994;2023-08-12T14:02:36;24.80;99.90
48666;DHT22;34452;50.796;4.994;2023-08-12T14:05:02;24.60;99.90
48666;DHT22;34452;50.796;4.994;2023-08-12T14:07:28;24.40;99.90
48666;DHT22;34452;50.796;4.994;2023-08-12T14:09:54;24.60;99.90
48666;DHT22;34452;50.796;4.994;2023-08-12T14:12:20;24.70;99.90
48666;DHT22;34452;50.796;4.994;2023-08-12T14:14:46;24.90;99.90
48666;DHT22;34452;50.796;4.994;2023-08-12T14:17:11;25.10;99.90
48666;DHT22;34452;50.796;4.994;2023-08-12T14:19:40;25.30;99.90
48666;DHT22;34452;50.796;4.994;2023-08-12T14:22:07;25.50;99.90
48666;DHT22;34452;50.796;4.994;2023-08-12T14:24:33;25.10;99.90
48666;DHT22;34452;50.796;4.994;2023-08-12T14:26:58;25.20;99.90
48666;DHT22;34452;50.796;4.994;2023-08-12T14:29:24;25.30;99.90
48666;DHT22;34452;50.796;4.994;2023-08-12T14:31:50;25.60;99.90
48666;DHT22;34452;50.796;4.994;2023-08-12T14:34:16;25.50;99.90
48666;DHT22;34452;50.796;4.994;2023-08-12T14:36:42;25.70;99.90
48666;DHT22;34452;50.796;4.994;2023-08-12T14:39:07;25.40;99.50
48666;DHT22;34452;50.796;4.994;2023-08-12T14:41:33;25.40;99.90
48666;DHT22;34452;50.796;4.994;2023-08-12T14:43:59;25.70;99.90
48666;DHT22;34452;50.796;4.994;2023-08-12T14:46:24;26.10;98.70
48666;DHT22;34452;50.796;4.994;2023-08-12T14:48:50;26.30;98.60
48666;DHT22;34452;50.796;4.994;2023-08-12T14:51:18;26.60;97.40
48666;DHT22;34452;50.796;4.994;2023-08-12T14:53:44;26.90;96.70
48666;DHT22;34452;50.796;4.994;2023-08-12T14:56:12;27.00;98.20
48666;DHT22;34452;50.796;4.994;2023-08-12T14:58:38;27.20;96.90
48666;DHT22;34452;50.796;4.994;2023-08-12T15:01:04;27.20;95.50
48666;DHT22;34452;50.796;4.994;2023-08-12T15:03:29;27.40;93.80
48666;DHT22;34452;50.796;4.994;2023-08-12T15:06:06;27.40;95.60
48666;DHT22;34452;50.796;4.994;2023-08-12T15:08:32;27.30;95.00
48666;DHT22;34452;50.796;4.994;2023-08-12T15:10:58;27.40;94.50
48666;DHT22;34452;50.796;4.994;2023-08-12T15:13:25;27.60;92.70
48666;DHT22;34452;50.796;4.994;2023-08-12T15:15:51;27.70;94.40
48666;DHT22;34452;50.796;4.994;2023-08-12T15:18:17;27.90;91.90
48666;DHT22;34452;50.796;4.994;2023-08-12T15:20:43;27.40;93.40
48666;DHT22;34452;50.796;4.994;2023-08-12T15:23:09;27.50;91.80
48666;DHT22;34452;50.796;4.994;2023-08-12T15:25:35;27.70;92.70
48666;DHT22;34452;50.796;4.994;2023-08-12T15:28:00;28.00;91.60
48666;DHT22;34452;50.796;4.994;2023-08-12T15:30:27;27.90;82.10
48666;DHT22;34452;50.796;4.994;2023-08-12T15:32:53;28.10;82.90